sensor_id;sensor_type;location;lat;lon;timestamp;P1;durP1;ratioP1;P2;durP2;ratioP2
66212;SDS011;53015;50.046;8.238;2024-03-25T00:02:16;8.43;;;1.55;;
66212;SDS011;53015;50.046;8.238;2024-03-25T00:04:42;3.03;;;0.98;;
66212;SDS011;53015;50.046;8.238;2024-03-25T00:07:08;2.90;;;0.70;;
66212;SDS011;53015;50.046;8.238;2024-03-25T00:09:33;6.55;;;0.98;;
66212;SDS011;53015;50.046;8.238;2024-03-25T00:11:59;4.50;;;0.98;;
66212;SDS011;53015;50.046;8.238;2024-03-25T00:14:25;4.32;;;0.85;;
66212;SDS011;53015;50.046;8.238;2024-03-25T00:16:51;5.88;;;1.23;;
66212;SDS011;53015;50.046;8.238;2024-03-25T00:19:18;3.92;;;1.10;;
66212;SDS011;53015;50.046;8.238;2024-03-25T00:21:44;3.65;;;1.10;;
66212;SDS011;53015;50.046;8.238;2024-03-25T00:24:09;5.40;;;0.98;;
66212;SDS011;53015;50.046;8.238;2024-03-25T00:26:35;4.65;;;1.13;;
66212;SDS011;53015;50.046;8.238;2024-03-25T00:29:00;5.10;;;1.13;;
66212;SDS011;53015;50.046;8.238;2024-03-25T00:31:27;4.53;;;1.00;;
66212;SDS011;53015;50.046;8.238;2024-03-25T00:33:52;3.55;;;1.15;;
66212;SDS011;53015;50.046;8.238;2024-03-25T00:36:20;6.75;;;1.33;;
66212;SDS011;53015;50.046;8.238;2024-03-25T00:38:46;4.95;;;1.35;;
66212;SDS011;53015;50.046;8.238;2024-03-25T00:41:12;5.22;;;1.23;;
66212;SDS011;53015;50.046;8.238;2024-03-25T00:43:38;2.30;;;1.00;;
66212;SDS011;53015;50.046;8.238;2024-03-25T00:46:04;2.45;;;1.10;;
66212;SDS011;53015;50.046;8.238;2024-03-25T00:48:30;4.28;;;1.63;;
66212;SDS011;53015;50.046;8.238;2024-03-25T00:50:55;5.68;;;1.25;;
66212;SDS011;53015;50.046;8.238;2024-03-25T00:53:23;5.53;;;1.40;;
66212;SDS011;53015;50.046;8.238;2024-03-25T00:55:48;6.78;;;1.40;;
66212;SDS011;53015;50.046;8.238;2024-03-25T00:58:14;7.40;;;1.00;;
66212;SDS011;53015;50.046;8.238;2024-03-25T01:00:39;3.20;;;1.05;;
66212;SDS011;53015;50.046;8.238;2024-03-25T01:03:05;4.07;;;0.95;;
66212;SDS011;53015;50.046;8.238;2024-03-25T01:05:31;3.72;;;1.15;;
66212;SDS011;53015;50.046;8.238;2024-03-25T01:07:56;3.90;;;1.20;;
66212;SDS011;53015;50.046;8.238;2024-03-25T01:10:23;3.85;;;1.20;;
66212;SDS011;53015;50.046;8.238;2024-03-25T01:12:49;5.03;;;1.02;;
66212;SDS011;53015;50.046;8.238;2024-03-25T01:15:15;4.63;;;1.30;;
66212;SDS011;53015;50.046;8.238;2024-03-25T01:17:41;2.67;;;0.80;;
66212;SDS011;53015;50.046;8.238;2024-03-25T01:20:07;6.50;;;1.00;;
66212;SDS011;53015;50.046;8.238;2024-03-25T01:22:33;2.45;;;1.00;;
66212;SDS011;53015;50.046;8.238;2024-03-25T01:24:59;3.20;;;1.10;;
66212;SDS011;53015;50.046;8.238;2024-03-25T01:27:26;5.75;;;1.13;;
66212;SDS011;53015;50.046;8.238;2024-03-25T01:29:51;3.28;;;1.20;;
66212;SDS011;53015;50.046;8.238;2024-03-25T01:32:17;4.88;;;1.10;;
66212;SDS011;53015;50.046;8.238;2024-03-25T01:34:43;5.50;;;1.50;;
66212;SDS011;53015;50.046;8.238;2024-03-25T01:37:09;4.57;;;1.20;;
66212;SDS011;53015;50.046;8.238;2024-03-25T01:39:34;6.03;;;1.35;;
66212;SDS011;53015;50.046;8.238;2024-03-25T01:42:00;2.25;;;1.00;;
66212;SDS011;53015;50.046;8.238;2024-03-25T01:44:27;1.88;;;1.00;;
66212;SDS011;53015;50.046;8.238;2024-03-25T01:46:53;1.35;;;0.80;;
66212;SDS011;53015;50.046;8.238;2024-03-25T01:49:19;2.53;;;0.90;;
66212;SDS011;53015;50.046;8.238;2024-03-25T01:51:45;4.65;;;1.00;;
66212;SDS011;53015;50.046;8.238;2024-03-25T01:54:10;7.55;;;1.20;;
66212;SDS011;53015;50.046;8.238;2024-03-25T01:56:37;5.05;;;1.27;;
66212;SDS011;53015;50.046;8.238;2024-03-25T01:59:03;6.53;;;1.05;;
66212;SDS011;53015;50.046;8.238;2024-03-25T02:01:30;2.15;;;1.15;;
66212;SDS011;53015;50.046;8.238;2024-03-25T02:03:57;5.18;;;0.93;;
66212;SDS011;53015;50.046;8.238;2024-03-25T02:06:23;7.35;;;1.38;;
66212;SDS011;53015;50.046;8.238;2024-03-25T02:08:51;3.22;;;1.02;;
66212;SDS011;53015;50.046;8.238;2024-03-25T02:11:18;4.40;;;1.38;;
66212;SDS011;53015;50.046;8.238;2024-03-25T02:13:44;6.70;;;1.70;;
66212;SDS011;53015;50.046;8.238;2024-03-25T02:16:10;5.00;;;1.52;;
66212;SDS011;53015;50.046;8.238;2024-03-25T02:18:37;5.63;;;1.42;;
66212;SDS011;53015;50.046;8.238;2024-03-25T02:21:03;6.03;;;1.10;;
66212;SDS011;53015;50.046;8.238;2024-03-25T02:23:29;3.30;;;1.25;;
66212;SDS011;53015;50.046;8.238;2024-03-25T02:25:56;3.65;;;1.25;;
66212;SDS011;53015;50.046;8.238;2024-03-25T02:28:21;4.88;;;1.48;;
66212;SDS011;53015;50.046;8.238;2024-03-25T02:30:47;5.18;;;1.35;;
66212;SDS011;53015;50.046;8.238;2024-03-25T02:33:12;4.97;;;0.93;;
66212;SDS011;53015;50.046;8.238;2024-03-25T02:35:38;4.10;;;1.00;;
66212;SDS011;53015;50.046;8.238;2024-03-25T02:38:05;2.72;;;1.10;;
66212;SDS011;53015;50.046;8.238;2024-03-25T02:40:32;5.10;;;1.10;;
66212;SDS011;53015;50.046;8.238;2024-03-25T02:42:59;5.45;;;1.10;;
66212;SDS011;53015;50.046;8.238;2024-03-25T02:45:26;5.85;;;1.42;;
66212;SDS011;53015;50.046;8.238;2024-03-25T02:47:52;4.85;;;1.30;;
66212;SDS011;53015;50.046;8.238;2024-03-25T02:50:20;3.22;;;1.38;;
66212;SDS011;53015;50.046;8.238;2024-03-25T02:52:46;7.53;;;1.08;;
66212;SDS011;53015;50.046;8.238;2024-03-25T02:55:11;6.10;;;1.40;;
66212;SDS011;53015;50.046;8.238;2024-03-25T02:57:37;5.35;;;1.10;;
66212;SDS011;53015;50.046;8.238;2024-03-25T03:00:04;1.77;;;0.80;;
66212;SDS011;53015;50.046;8.238;2024-03-25T03:02:32;4.65;;;1.13;;
66212;SDS011;53015;50.046;8.238;2024-03-25T03:04:58;4.68;;;1.08;;
66212;SDS011;53015;50.046;8.238;2024-03-25T03:07:24;4.07;;;0.90;;
66212;SDS011;53015;50.046;8.238;2024-03-25T03:09:50;4.57;;;1.00;;
66212;SDS011;53015;50.046;8.238;2024-03-25T03:12:16;5.05;;;1.20;;
66212;SDS011;53015;50.046;8.238;2024-03-25T03:14:41;6.13;;;1.20;;
66212;SDS011;53015;50.046;8.238;2024-03-25T03:17:08;3.25;;;1.10;;
66212;SDS011;53015;50.046;8.238;2024-03-25T03:19:34;5.38;;;1.00;;
66212;SDS011;53015;50.046;8.238;2024-03-25T03:21:59;5.93;;;1.25;;
66212;SDS011;53015;50.046;8.238;2024-03-25T03:24:24;4.30;;;1.17;;
66212;SDS011;53015;50.046;8.238;2024-03-25T03:26:50;3.65;;;1.20;;
66212;SDS011;53015;50.046;8.238;2024-03-25T03:29:16;4.88;;;1.20;;
66212;SDS011;53015;50.046;8.238;2024-03-25T03:31:42;4.75;;;1.58;;
66212;SDS011;53015;50.046;8.238;2024-03-25T03:34:10;3.65;;;1.30;;
66212;SDS011;53015;50.046;8.238;2024-03-25T03:36:36;7.20;;;1.80;;
66212;SDS011;53015;50.046;8.238;2024-03-25T03:39:01;6.35;;;1.58;;
66212;SDS011;53015;50.046;8.238;2024-03-25T03:41:27;5.60;;;1.20;;
66212;SDS011;53015;50.046;8.238;2024-03-25T03:43:52;2.90;;;1.27;;
66212;SDS011;53015;50.046;8.238;2024-03-25T03:46:18;5.82;;;1.38;;
66212;SDS011;53015;50.046;8.238;2024-03-25T03:48:43;5.25;;;1.73;;
66212;SDS011;53015;50.046;8.238;2024-03-25T03:51:10;8.90;;;1.75;;
66212;SDS011;53015;50.046;8.238;2024-03-25T03:53:38;7.93;;;1.48;;
66212;SDS011;53015;50.046;8.238;2024-03-25T03:56:06;5.63;;;1.20;;
66212;SDS011;53015;50.046;8.238;2024-03-25T03:58:34;4.53;;;1.30;;
66212;SDS011;53015;50.046;8.238;2024-03-25T04:01:00;4.28;;;1.30;;
66212;SDS011;53015;50.046;8.238;2024-03-25T04:03:26;5.15;;;1.27;;
66212;SDS011;53015;50.046;8.238;2024-03-25T04:05:51;2.22;;;0.90;;
66212;SDS011;53015;50.046;8.238;2024-03-25T04:08:18;4.20;;;1.10;;
66212;SDS011;53015;50.046;8.238;2024-03-25T04:10:46;2.03;;;0.98;;
66212;SDS011;53015;50.046;8.238;2024-03-25T04:13:11;4.95;;;1.45;;
66212;SDS011;53015;50.046;8.238;2024-03-25T04:15:37;5.07;;;1.58;;
66212;SDS011;53015;50.046;8.238;2024-03-25T04:18:04;3.40;;;1.20;;
66212;SDS011;53015;50.046;8.238;2024-03-25T04:20:30;3.65;;;1.30;;
66212;SDS011;53015;50.046;8.238;2024-03-25T04:23:01;3.47;;;1.23;;
66212;SDS011;53015;50.046;8.238;2024-03-25T04:25:28;6.30;;;1.48;;
66212;SDS011;53015;50.046;8.238;2024-03-25T04:27:54;5.45;;;1.63;;
66212;SDS011;53015;50.046;8.238;2024-03-25T04:30:20;5.95;;;1.70;;
66212;SDS011;53015;50.046;8.238;2024-03-25T04:32:47;3.92;;;1.63;;
66212;SDS011;53015;50.046;8.238;2024-03-25T04:35:13;2.63;;;1.02;;
66212;SDS011;53015;50.046;8.238;2024-03-25T04:37:39;6.55;;;1.48;;
66212;SDS011;53015;50.046;8.238;2024-03-25T04:40:05;2.05;;;1.10;;
66212;SDS011;53015;50.046;8.238;2024-03-25T04:42:34;5.07;;;1.48;;
66212;SDS011;53015;50.046;8.238;2024-03-25T04:45:00;4.93;;;1.50;;
66212;SDS011;53015;50.046;8.238;2024-03-25T04:47:26;3.67;;;1.60;;
66212;SDS011;53015;50.046;8.238;2024-03-25T04:49:52;5.55;;;1.95;;
66212;SDS011;53015;50.046;8.238;2024-03-25T04:52:17;4.28;;;1.88;;
66212;SDS011;53015;50.046;8.238;2024-03-25T04:54:43;6.45;;;1.70;;
66212;SDS011;53015;50.046;8.238;2024-03-25T04:57:09;5.88;;;1.55;;
66212;SDS011;53015;50.046;8.238;2024-03-25T04:59:36;5.72;;;1.42;;
66212;SDS011;53015;50.046;8.238;2024-03-25T05:02:01;3.80;;;1.55;;
66212;SDS011;53015;50.046;8.238;2024-03-25T05:04:27;5.93;;;1.73;;
66212;SDS011;53015;50.046;8.238;2024-03-25T05:06:54;7.55;;;1.60;;
66212;SDS011;53015;50.046;8.238;2024-03-25T05:09:20;7.25;;;1.55;;
66212;SDS011;53015;50.046;8.238;2024-03-25T05:11:46;7.75;;;1.45;;
66212;SDS011;53015;50.046;8.238;2024-03-25T05:14:12;4.68;;;1.38;;
66212;SDS011;53015;50.046;8.238;2024-03-25T05:16:39;8.85;;;1.58;;
66212;SDS011;53015;50.046;8.238;2024-03-25T05:19:04;6.45;;;1.48;;
66212;SDS011;53015;50.046;8.238;2024-03-25T05:21:31;5.72;;;1.30;;
66212;SDS011;53015;50.046;8.238;2024-03-25T05:23:57;4.43;;;1.60;;
66212;SDS011;53015;50.046;8.238;2024-03-25T05:26:22;6.32;;;1.85;;
66212;SDS011;53015;50.046;8.238;2024-03-25T05:28:52;5.15;;;1.42;;
66212;SDS011;53015;50.046;8.238;2024-03-25T05:31:18;7.32;;;1.75;;
66212;SDS011;53015;50.046;8.238;2024-03-25T05:33:45;4.93;;;1.50;;
66212;SDS011;53015;50.046;8.238;2024-03-25T05:36:10;10.70;;;1.83;;
66212;SDS011;53015;50.046;8.238;2024-03-25T05:38:36;5.35;;;1.50;;
66212;SDS011;53015;50.046;8.238;2024-03-25T05:41:02;6.50;;;2.22;;
66212;SDS011;53015;50.046;8.238;2024-03-25T05:43:28;8.02;;;1.88;;
66212;SDS011;53015;50.046;8.238;2024-03-25T05:45:54;5.47;;;1.70;;
66212;SDS011;53015;50.046;8.238;2024-03-25T05:48:21;2.97;;;1.60;;
66212;SDS011;53015;50.046;8.238;2024-03-25T05:50:57;4.80;;;1.58;;
66212;SDS011;53015;50.046;8.238;2024-03-25T05:53:24;6.93;;;1.70;;
66212;SDS011;53015;50.046;8.238;2024-03-25T05:55:52;2.58;;;1.20;;
66212;SDS011;53015;50.046;8.238;2024-03-25T05:58:17;6.60;;;1.50;;
66212;SDS011;53015;50.046;8.238;2024-03-25T06:00:43;5.97;;;1.50;;
66212;SDS011;53015;50.046;8.238;2024-03-25T06:03:08;5.22;;;1.42;;
66212;SDS011;53015;50.046;8.238;2024-03-25T06:05:33;4.85;;;1.70;;
66212;SDS011;53015;50.046;8.238;2024-03-25T06:08:01;4.47;;;1.52;;
66212;SDS011;53015;50.046;8.238;2024-03-25T06:10:26;6.78;;;1.65;;
66212;SDS011;53015;50.046;8.238;2024-03-25T06:12:53;5.20;;;1.48;;
66212;SDS011;53015;50.046;8.238;2024-03-25T06:15:19;6.70;;;1.48;;
66212;SDS011;53015;50.046;8.238;2024-03-25T06:17:44;6.65;;;1.63;;
66212;SDS011;53015;50.046;8.238;2024-03-25T06:20:10;4.72;;;1.50;;
66212;SDS011;53015;50.046;8.238;2024-03-25T06:22:36;5.10;;;1.42;;
66212;SDS011;53015;50.046;8.238;2024-03-25T06:25:03;7.93;;;1.80;;
66212;SDS011;53015;50.046;8.238;2024-03-25T06:27:29;3.00;;;1.60;;
66212;SDS011;53015;50.046;8.238;2024-03-25T06:29:55;9.05;;;1.90;;
66212;SDS011;53015;50.046;8.238;2024-03-25T06:32:20;5.80;;;1.70;;
66212;SDS011;53015;50.046;8.238;2024-03-25T06:34:46;7.10;;;2.08;;
66212;SDS011;53015;50.046;8.238;2024-03-25T06:37:12;7.40;;;1.85;;
66212;SDS011;53015;50.046;8.238;2024-03-25T06:39:37;4.60;;;1.90;;
66212;SDS011;53015;50.046;8.238;2024-03-25T06:42:06;6.75;;;2.17;;
66212;SDS011;53015;50.046;8.238;2024-03-25T06:44:31;6.40;;;1.83;;
66212;SDS011;53015;50.046;8.238;2024-03-25T06:46:57;6.05;;;1.58;;
66212;SDS011;53015;50.046;8.238;2024-03-25T06:49:23;5.45;;;1.65;;
66212;SDS011;53015;50.046;8.238;2024-03-25T06:51:48;7.95;;;1.83;;
66212;SDS011;53015;50.046;8.238;2024-03-25T06:54:14;5.30;;;1.95;;
66212;SDS011;53015;50.046;8.238;2024-03-25T06:56:39;5.88;;;1.70;;
66212;SDS011;53015;50.046;8.238;2024-03-25T06:59:07;5.75;;;2.45;;
66212;SDS011;53015;50.046;8.238;2024-03-25T07:01:32;8.07;;;1.73;;
66212;SDS011;53015;50.046;8.238;2024-03-25T07:03:58;6.65;;;1.42;;
66212;SDS011;53015;50.046;8.238;2024-03-25T07:06:25;7.72;;;1.58;;
66212;SDS011;53015;50.046;8.238;2024-03-25T07:08:51;7.45;;;1.40;;
66212;SDS011;53015;50.046;8.238;2024-03-25T07:11:19;5.43;;;1.42;;
66212;SDS011;53015;50.046;8.238;2024-03-25T07:13:47;8.20;;;1.95;;
66212;SDS011;53015;50.046;8.238;2024-03-25T07:16:15;5.10;;;1.45;;
66212;SDS011;53015;50.046;8.238;2024-03-25T07:18:40;7.25;;;1.17;;
66212;SDS011;53015;50.046;8.238;2024-03-25T07:21:06;6.03;;;1.23;;
66212;SDS011;53015;50.046;8.238;2024-03-25T07:23:31;6.95;;;1.25;;
66212;SDS011;53015;50.046;8.238;2024-03-25T07:25:57;6.03;;;1.50;;
66212;SDS011;53015;50.046;8.238;2024-03-25T07:28:25;7.32;;;1.33;;
66212;SDS011;53015;50.046;8.238;2024-03-25T07:30:51;5.63;;;1.10;;
66212;SDS011;53015;50.046;8.238;2024-03-25T07:33:18;3.75;;;1.08;;
66212;SDS011;53015;50.046;8.238;2024-03-25T07:35:44;5.50;;;1.30;;
66212;SDS011;53015;50.046;8.238;2024-03-25T07:38:10;5.60;;;1.58;;
66212;SDS011;53015;50.046;8.238;2024-03-25T07:40:35;5.72;;;1.20;;
66212;SDS011;53015;50.046;8.238;2024-03-25T07:43:01;6.03;;;1.30;;
66212;SDS011;53015;50.046;8.238;2024-03-25T07:45:26;6.63;;;1.95;;
66212;SDS011;53015;50.046;8.238;2024-03-25T07:47:52;5.03;;;1.20;;
66212;SDS011;53015;50.046;8.238;2024-03-25T07:50:19;7.03;;;1.65;;
66212;SDS011;53015;50.046;8.238;2024-03-25T07:52:45;5.43;;;1.13;;
66212;SDS011;53015;50.046;8.238;2024-03-25T07:55:14;3.08;;;1.00;;
66212;SDS011;53015;50.046;8.238;2024-03-25T07:57:40;9.00;;;1.42;;
66212;SDS011;53015;50.046;8.238;2024-03-25T08:00:06;8.50;;;1.20;;
66212;SDS011;53015;50.046;8.238;2024-03-25T08:02:33;9.57;;;1.23;;
66212;SDS011;53015;50.046;8.238;2024-03-25T08:04:59;3.85;;;0.80;;
66212;SDS011;53015;50.046;8.238;2024-03-25T08:07:27;9.50;;;1.38;;
66212;SDS011;53015;50.046;8.238;2024-03-25T08:09:52;7.15;;;1.33;;
66212;SDS011;53015;50.046;8.238;2024-03-25T08:12:17;9.77;;;1.40;;
66212;SDS011;53015;50.046;8.238;2024-03-25T08:14:43;5.53;;;1.27;;
66212;SDS011;53015;50.046;8.238;2024-03-25T08:17:08;9.48;;;1.95;;
66212;SDS011;53015;50.046;8.238;2024-03-25T08:19:34;14.82;;;1.80;;
66212;SDS011;53015;50.046;8.238;2024-03-25T08:22:00;12.85;;;3.25;;
66212;SDS011;53015;50.046;8.238;2024-03-25T08:24:28;5.47;;;1.30;;
66212;SDS011;53015;50.046;8.238;2024-03-25T08:26:54;14.32;;;2.10;;
66212;SDS011;53015;50.046;8.238;2024-03-25T08:29:19;8.52;;;1.38;;
66212;SDS011;53015;50.046;8.238;2024-03-25T08:31:45;6.97;;;1.40;;
66212;SDS011;53015;50.046;8.238;2024-03-25T08:34:10;5.00;;;1.30;;
66212;SDS011;53015;50.046;8.238;2024-03-25T08:36:36;11.75;;;1.40;;
66212;SDS011;53015;50.046;8.238;2024-03-25T08:39:02;12.75;;;2.22;;
66212;SDS011;53015;50.046;8.238;2024-03-25T08:41:29;7.30;;;1.48;;
66212;SDS011;53015;50.046;8.238;2024-03-25T08:43:55;6.85;;;1.15;;
66212;SDS011;53015;50.046;8.238;2024-03-25T08:46:20;7.60;;;1.33;;
66212;SDS011;53015;50.046;8.238;2024-03-25T08:48:46;4.32;;;1.00;;
66212;SDS011;53015;50.046;8.238;2024-03-25T08:51:11;8.02;;;1.40;;
66212;SDS011;53015;50.046;8.238;2024-03-25T08:53:37;9.18;;;1.60;;
66212;SDS011;53015;50.046;8.238;2024-03-25T08:56:02;8.40;;;1.10;;
66212;SDS011;53015;50.046;8.238;2024-03-25T08:58:30;6.13;;;1.20;;
66212;SDS011;53015;50.046;8.238;2024-03-25T09:00:55;7.68;;;1.77;;
66212;SDS011;53015;50.046;8.238;2024-03-25T09:03:21;5.80;;;1.25;;
66212;SDS011;53015;50.046;8.238;2024-03-25T09:05:46;2.88;;;1.10;;
66212;SDS011;53015;50.046;8.238;2024-03-25T09:08:12;10.70;;;1.45;;
66212;SDS011;53015;50.046;8.238;2024-03-25T09:10:38;9.77;;;1.00;;
66212;SDS011;53015;50.046;8.238;2024-03-25T09:13:03;8.10;;;1.58;;
66212;SDS011;53015;50.046;8.238;2024-03-25T09:15:30;6.68;;;1.13;;
66212;SDS011;53015;50.046;8.238;2024-03-25T09:17:56;4.88;;;1.45;;
66212;SDS011;53015;50.046;8.238;2024-03-25T09:20:22;7.38;;;1.27;;
66212;SDS011;53015;50.046;8.238;2024-03-25T09:22:48;5.63;;;1.30;;
66212;SDS011;53015;50.046;8.238;2024-03-25T09:25:14;4.55;;;1.45;;
66212;SDS011;53015;50.046;8.238;2024-03-25T09:27:40;11.20;;;1.08;;
66212;SDS011;53015;50.046;8.238;2024-03-25T09:30:06;7.53;;;1.45;;
66212;SDS011;53015;50.046;8.238;2024-03-25T09:32:34;4.88;;;1.15;;
66212;SDS011;53015;50.046;8.238;2024-03-25T09:35:00;5.22;;;0.95;;
66212;SDS011;53015;50.046;8.238;2024-03-25T09:37:25;5.22;;;1.10;;
66212;SDS011;53015;50.046;8.238;2024-03-25T09:39:51;3.70;;;0.90;;
66212;SDS011;53015;50.046;8.238;2024-03-25T09:42:18;3.50;;;0.88;;
66212;SDS011;53015;50.046;8.238;2024-03-25T09:44:50;6.07;;;1.05;;
66212;SDS011;53015;50.046;8.238;2024-03-25T09:47:16;7.85;;;1.30;;
66212;SDS011;53015;50.046;8.238;2024-03-25T09:49:42;5.72;;;1.25;;
66212;SDS011;53015;50.046;8.238;2024-03-25T09:52:10;4.35;;;1.40;;
66212;SDS011;53015;50.046;8.238;2024-03-25T09:54:35;3.00;;;1.15;;
66212;SDS011;53015;50.046;8.238;2024-03-25T09:57:01;6.13;;;1.30;;
66212;SDS011;53015;50.046;8.238;2024-03-25T09:59:27;4.35;;;1.20;;
66212;SDS011;53015;50.046;8.238;2024-03-25T10:01:54;3.30;;;0.80;;
66212;SDS011;53015;50.046;8.238;2024-03-25T10:04:21;4.70;;;0.90;;
66212;SDS011;53015;50.046;8.238;2024-03-25T10:06:48;5.43;;;1.35;;
66212;SDS011;53015;50.046;8.238;2024-03-25T10:09:18;4.00;;;0.82;;
66212;SDS011;53015;50.046;8.238;2024-03-25T10:11:47;3.95;;;1.08;;
66212;SDS011;53015;50.046;8.238;2024-03-25T10:14:12;4.28;;;1.02;;
66212;SDS011;53015;50.046;8.238;2024-03-25T10:16:38;3.08;;;1.00;;
66212;SDS011;53015;50.046;8.238;2024-03-25T10:19:03;4.28;;;0.85;;
66212;SDS011;53015;50.046;8.238;2024-03-25T10:21:29;2.15;;;0.70;;
66212;SDS011;53015;50.046;8.238;2024-03-25T10:23:56;5.30;;;1.33;;
66212;SDS011;53015;50.046;8.238;2024-03-25T10:26:27;3.25;;;1.10;;
66212;SDS011;53015;50.046;8.238;2024-03-25T10:29:00;3.53;;;1.10;;
66212;SDS011;53015;50.046;8.238;2024-03-25T10:31:27;3.58;;;1.00;;
66212;SDS011;53015;50.046;8.238;2024-03-25T10:33:53;8.23;;;1.40;;
66212;SDS011;53015;50.046;8.238;2024-03-25T10:36:20;3.97;;;1.05;;
66212;SDS011;53015;50.046;8.238;2024-03-25T10:38:48;4.50;;;1.23;;
66212;SDS011;53015;50.046;8.238;2024-03-25T10:41:18;3.58;;;1.08;;
66212;SDS011;53015;50.046;8.238;2024-03-25T10:43:45;4.95;;;0.90;;
66212;SDS011;53015;50.046;8.238;2024-03-25T10:46:12;4.65;;;1.00;;
66212;SDS011;53015;50.046;8.238;2024-03-25T10:48:42;3.03;;;0.80;;
66212;SDS011;53015;50.046;8.238;2024-03-25T10:51:12;4.53;;;1.00;;
66212;SDS011;53015;50.046;8.238;2024-03-25T10:53:38;4.00;;;1.05;;
66212;SDS011;53015;50.046;8.238;2024-03-25T10:56:06;3.58;;;1.00;;
66212;SDS011;53015;50.046;8.238;2024-03-25T10:58:34;4.25;;;0.80;;
66212;SDS011;53015;50.046;8.238;2024-03-25T11:01:01;4.47;;;0.93;;
66212;SDS011;53015;50.046;8.238;2024-03-25T11:03:26;3.90;;;0.93;;
66212;SDS011;53015;50.046;8.238;2024-03-25T11:05:53;3.13;;;1.13;;
66212;SDS011;53015;50.046;8.238;2024-03-25T11:08:18;4.18;;;1.40;;
66212;SDS011;53015;50.046;8.238;2024-03-25T11:10:44;3.25;;;1.15;;
66212;SDS011;53015;50.046;8.238;2024-03-25T11:13:11;3.45;;;1.13;;
66212;SDS011;53015;50.046;8.238;2024-03-25T11:15:39;5.00;;;1.05;;
66212;SDS011;53015;50.046;8.238;2024-03-25T11:18:10;5.03;;;0.80;;
66212;SDS011;53015;50.046;8.238;2024-03-25T11:20:37;2.45;;;0.77;;
66212;SDS011;53015;50.046;8.238;2024-03-25T11:23:08;3.28;;;0.82;;
66212;SDS011;53015;50.046;8.238;2024-03-25T11:25:34;1.55;;;0.90;;
66212;SDS011;53015;50.046;8.238;2024-03-25T11:28:00;2.53;;;0.65;;
66212;SDS011;53015;50.046;8.238;2024-03-25T11:30:26;3.47;;;0.80;;
66212;SDS011;53015;50.046;8.238;2024-03-25T11:32:56;4.88;;;1.02;;
66212;SDS011;53015;50.046;8.238;2024-03-25T11:35:22;3.08;;;0.63;;
66212;SDS011;53015;50.046;8.238;2024-03-25T11:37:48;8.10;;;1.20;;
66212;SDS011;53015;50.046;8.238;2024-03-25T11:40:14;3.30;;;1.00;;
66212;SDS011;53015;50.046;8.238;2024-03-25T11:42:40;3.42;;;0.80;;
66212;SDS011;53015;50.046;8.238;2024-03-25T11:45:06;3.53;;;1.20;;
66212;SDS011;53015;50.046;8.238;2024-03-25T11:47:32;1.77;;;0.93;;
66212;SDS011;53015;50.046;8.238;2024-03-25T11:50:00;5.00;;;0.98;;
66212;SDS011;53015;50.046;8.238;2024-03-25T11:52:32;1.77;;;0.77;;
66212;SDS011;53015;50.046;8.238;2024-03-25T11:54:57;4.18;;;1.00;;
66212;SDS011;53015;50.046;8.238;2024-03-25T11:57:23;1.85;;;0.90;;
66212;SDS011;53015;50.046;8.238;2024-03-25T11:59:50;3.78;;;0.95;;
66212;SDS011;53015;50.046;8.238;2024-03-25T12:02:16;2.50;;;0.88;;
66212;SDS011;53015;50.046;8.238;2024-03-25T12:04:42;2.17;;;1.00;;
66212;SDS011;53015;50.046;8.238;2024-03-25T12:07:11;3.03;;;0.80;;
66212;SDS011;53015;50.046;8.238;2024-03-25T12:09:37;2.90;;;0.90;;
66212;SDS011;53015;50.046;8.238;2024-03-25T12:12:03;3.28;;;0.90;;
66212;SDS011;53015;50.046;8.238;2024-03-25T12:14:29;3.30;;;0.93;;
66212;SDS011;53015;50.046;8.238;2024-03-25T12:16:54;5.45;;;1.08;;
66212;SDS011;53015;50.046;8.238;2024-03-25T12:19:20;4.43;;;1.00;;
66212;SDS011;53015;50.046;8.238;2024-03-25T12:21:46;3.03;;;1.05;;
66212;SDS011;53015;50.046;8.238;2024-03-25T12:24:13;4.57;;;0.90;;
66212;SDS011;53015;50.046;8.238;2024-03-25T12:26:39;2.40;;;0.70;;
66212;SDS011;53015;50.046;8.238;2024-03-25T12:29:05;4.32;;;1.00;;
66212;SDS011;53015;50.046;8.238;2024-03-25T12:31:31;2.65;;;0.77;;
66212;SDS011;53015;50.046;8.238;2024-03-25T12:33:56;4.07;;;1.00;;
66212;SDS011;53015;50.046;8.238;2024-03-25T12:36:22;2.58;;;0.82;;
66212;SDS011;53015;50.046;8.238;2024-03-25T12:38:53;4.68;;;0.90;;
66212;SDS011;53015;50.046;8.238;2024-03-25T12:41:22;2.38;;;1.05;;
66212;SDS011;53015;50.046;8.238;2024-03-25T12:43:49;2.97;;;1.20;;
66212;SDS011;53015;50.046;8.238;2024-03-25T12:46:16;2.80;;;0.73;;
66212;SDS011;53015;50.046;8.238;2024-03-25T12:48:42;2.65;;;1.00;;
66212;SDS011;53015;50.046;8.238;2024-03-25T12:51:11;2.78;;;1.13;;
66212;SDS011;53015;50.046;8.238;2024-03-25T12:53:38;2.58;;;0.75;;
66212;SDS011;53015;50.046;8.238;2024-03-25T12:56:03;2.22;;;0.80;;
66212;SDS011;53015;50.046;8.238;2024-03-25T12:58:31;3.42;;;0.80;;
66212;SDS011;53015;50.046;8.238;2024-03-25T13:00:57;4.35;;;1.05;;
66212;SDS011;53015;50.046;8.238;2024-03-25T13:03:22;2.47;;;1.02;;
66212;SDS011;53015;50.046;8.238;2024-03-25T13:05:49;3.45;;;0.90;;
66212;SDS011;53015;50.046;8.238;2024-03-25T13:08:15;3.83;;;1.27;;
66212;SDS011;53015;50.046;8.238;2024-03-25T13:10:41;3.60;;;1.38;;
66212;SDS011;53015;50.046;8.238;2024-03-25T13:13:06;3.17;;;0.90;;
66212;SDS011;53015;50.046;8.238;2024-03-25T13:15:33;2.47;;;0.80;;
66212;SDS011;53015;50.046;8.238;2024-03-25T13:18:00;1.85;;;0.65;;
66212;SDS011;53015;50.046;8.238;2024-03-25T13:20:26;3.80;;;1.15;;
66212;SDS011;53015;50.046;8.238;2024-03-25T13:22:53;3.28;;;0.82;;
66212;SDS011;53015;50.046;8.238;2024-03-25T13:25:19;1.83;;;0.88;;
66212;SDS011;53015;50.046;8.238;2024-03-25T13:27:44;2.40;;;0.65;;
66212;SDS011;53015;50.046;8.238;2024-03-25T13:30:10;4.55;;;1.23;;
66212;SDS011;53015;50.046;8.238;2024-03-25T13:32:37;3.22;;;1.38;;
66212;SDS011;53015;50.046;8.238;2024-03-25T13:35:03;4.45;;;0.95;;
66212;SDS011;53015;50.046;8.238;2024-03-25T13:37:31;1.80;;;0.90;;
66212;SDS011;53015;50.046;8.238;2024-03-25T13:39:57;2.05;;;0.77;;
66212;SDS011;53015;50.046;8.238;2024-03-25T13:42:23;3.92;;;1.00;;
66212;SDS011;53015;50.046;8.238;2024-03-25T13:44:48;2.03;;;0.60;;
66212;SDS011;53015;50.046;8.238;2024-03-25T13:47:16;2.55;;;0.77;;
66212;SDS011;53015;50.046;8.238;2024-03-25T13:49:43;2.53;;;0.75;;
66212;SDS011;53015;50.046;8.238;2024-03-25T13:52:09;1.33;;;0.73;;
66212;SDS011;53015;50.046;8.238;2024-03-25T13:54:34;3.22;;;0.82;;
66212;SDS011;53015;50.046;8.238;2024-03-25T13:57:00;3.17;;;1.02;;
66212;SDS011;53015;50.046;8.238;2024-03-25T13:59:25;2.85;;;1.00;;
66212;SDS011;53015;50.046;8.238;2024-03-25T14:01:51;2.75;;;1.00;;
66212;SDS011;53015;50.046;8.238;2024-03-25T14:04:17;2.90;;;1.02;;
66212;SDS011;53015;50.046;8.238;2024-03-25T14:06:44;3.35;;;0.88;;
66212;SDS011;53015;50.046;8.238;2024-03-25T14:09:10;2.53;;;0.73;;
66212;SDS011;53015;50.046;8.238;2024-03-25T14:11:47;4.00;;;0.85;;
66212;SDS011;53015;50.046;8.238;2024-03-25T14:14:13;2.15;;;0.70;;
66212;SDS011;53015;50.046;8.238;2024-03-25T14:16:39;2.92;;;0.70;;
66212;SDS011;53015;50.046;8.238;2024-03-25T14:19:05;2.75;;;0.70;;
66212;SDS011;53015;50.046;8.238;2024-03-25T14:21:31;5.68;;;1.02;;
66212;SDS011;53015;50.046;8.238;2024-03-25T14:23:59;3.55;;;1.05;;
66212;SDS011;53015;50.046;8.238;2024-03-25T14:26:24;3.85;;;0.80;;
66212;SDS011;53015;50.046;8.238;2024-03-25T14:28:50;4.50;;;1.23;;
66212;SDS011;53015;50.046;8.238;2024-03-25T14:31:15;3.08;;;0.90;;
66212;SDS011;53015;50.046;8.238;2024-03-25T14:33:42;1.75;;;0.60;;
66212;SDS011;53015;50.046;8.238;2024-03-25T14:36:08;2.90;;;1.00;;
66212;SDS011;53015;50.046;8.238;2024-03-25T14:38:35;1.65;;;0.80;;
66212;SDS011;53015;50.046;8.238;2024-03-25T14:41:03;1.33;;;0.82;;
66212;SDS011;53015;50.046;8.238;2024-03-25T14:43:28;2.75;;;0.80;;